sensor_id;sensor_type;location;lat;lon;timestamp;pressure;altitude;pressure_sealevel;temperature;humidity
15678;BME280;7939;50.814;6.368;2023-04-27T00:02:09;100242.56;;;12.73;49.65
15678;BME280;7939;50.814;6.368;2023-04-27T00:04:35;100240.88;;;12.72;48.74
15678;BME280;7939;50.814;6.368;2023-04-27T00:07:02;100241.72;;;12.72;50.07
15678;BME280;7939;50.814;6.368;2023-04-27T00:09:30;100234.88;;;12.71;49.86
15678;BME280;7939;50.814;6.368;2023-04-27T00:11:56;100244.28;;;12.72;49.99
15678;BME280;7939;50.814;6.368;2023-04-27T00:14:23;100239.16;;;12.72;50.11
15678;BME280;7939;50.814;6.368;2023-04-27T00:16:52;100234.88;;;12.69;49.38
15678;BME280;7939;50.814;6.368;2023-04-27T00:19:19;100238.28;;;12.68;50.22
15678;BME280;7939;50.814;6.368;2023-04-27T00:21:47;100242.56;;;12.68;49.26
15678;BME280;7939;50.814;6.368;2023-04-27T00:24:13;100245.13;;;12.68;50.12
15678;BME280;7939;50.814;6.368;2023-04-27T00:26:41;100249.41;;;12.67;49.20
15678;BME280;7939;50.814;6.368;2023-04-27T00:29:08;100240.00;;;12.66;49.38
15678;BME280;7939;50.814;6.368;2023-04-27T00:31:34;100240.88;;;12.65;48.77
15678;BME280;7939;50.814;6.368;2023-04-27T00:34:01;100240.03;;;12.65;50.04
15678;BME280;7939;50.814;6.368;2023-04-27T00:36:28;100239.16;;;12.64;49.72
15678;BME280;7939;50.814;6.368;2023-04-27T00:38:54;100243.44;;;12.65;49.43
15678;BME280;7939;50.814;6.368;2023-04-27T00:41:21;100244.31;;;12.64;50.00
15678;BME280;7939;50.814;6.368;2023-04-27T00:43:49;100235.72;;;12.62;49.79
15678;BME280;7939;50.814;6.368;2023-04-27T00:46:16;100240.03;;;12.63;49.58
15678;BME280;7939;50.814;6.368;2023-04-27T00:48:44;100238.31;;;12.62;49.79
15678;BME280;7939;50.814;6.368;2023-04-27T00:51:11;100240.00;;;12.62;50.25
15678;BME280;7939;50.814;6.368;2023-04-27T00:53:37;100240.00;;;12.62;49.40
15678;BME280;7939;50.814;6.368;2023-04-27T00:56:05;100228.06;;;12.61;49.80
15678;BME280;7939;50.814;6.368;2023-04-27T00:58:32;100233.19;;;12.61;49.36
15678;BME280;7939;50.814;6.368;2023-04-27T01:01:01;100236.59;;;12.61;49.21
15678;BME280;7939;50.814;6.368;2023-04-27T01:03:29;100238.31;;;12.61;50.04
15678;BME280;7939;50.814;6.368;2023-04-27T01:05:55;100248.56;;;12.59;49.84
15678;BME280;7939;50.814;6.368;2023-04-27T01:08:26;100239.16;;;12.60;49.70
15678;BME280;7939;50.814;6.368;2023-04-27T01:10:52;100241.75;;;12.58;49.66
15678;BME280;7939;50.814;6.368;2023-04-27T01:13:19;100234.91;;;12.57;50.17
15678;BME280;7939;50.814;6.368;2023-04-27T01:15:46;100243.44;;;12.56;50.27
15678;BME280;7939;50.814;6.368;2023-04-27T01:18:14;100234.88;;;12.56;50.07
15678;BME280;7939;50.814;6.368;2023-04-27T01:20:41;100240.03;;;12.54;49.96
15678;BME280;7939;50.814;6.368;2023-04-27T01:23:13;100237.44;;;12.56;49.78
15678;BME280;7939;50.814;6.368;2023-04-27T01:25:40;100236.59;;;12.54;50.60
15678;BME280;7939;50.814;6.368;2023-04-27T01:28:07;100238.31;;;12.53;49.72
15678;BME280;7939;50.814;6.368;2023-04-27T01:30:33;100231.50;;;12.52;49.93
15678;BME280;7939;50.814;6.368;2023-04-27T01:32:59;100234.91;;;12.51;49.73
15678;BME280;7939;50.814;6.368;2023-04-27T01:35:26;100240.03;;;12.51;50.54
15678;BME280;7939;50.814;6.368;2023-04-27T01:37:53;100245.16;;;12.50;50.47
15678;BME280;7939;50.814;6.368;2023-04-27T01:40:21;100237.47;;;12.47;49.94
15678;BME280;7939;50.814;6.368;2023-04-27T01:42:48;100240.88;;;12.47;50.66
15678;BME280;7939;50.814;6.368;2023-04-27T01:45:15;100237.47;;;12.47;49.62
15678;BME280;7939;50.814;6.368;2023-04-27T01:47:41;100234.91;;;12.45;50.32
15678;BME280;7939;50.814;6.368;2023-04-27T01:50:08;100240.03;;;12.45;50.27
15678;BME280;7939;50.814;6.368;2023-04-27T01:52:35;100231.47;;;12.43;50.58
15678;BME280;7939;50.814;6.368;2023-04-27T01:55:01;100232.31;;;12.43;50.05
15678;BME280;7939;50.814;6.368;2023-04-27T01:57:29;100227.22;;;12.42;49.76
15678;BME280;7939;50.814;6.368;2023-04-27T01:59:56;100227.22;;;12.40;50.84
15678;BME280;7939;50.814;6.368;2023-04-27T02:02:22;100234.06;;;12.40;50.72
15678;BME280;7939;50.814;6.368;2023-04-27T02:04:49;100234.06;;;12.38;50.18
15678;BME280;7939;50.814;6.368;2023-04-27T02:07:16;100228.06;;;12.36;50.31
15678;BME280;7939;50.814;6.368;2023-04-27T02:09:42;100229.78;;;12.36;49.86
15678;BME280;7939;50.814;6.368;2023-04-27T02:12:09;100235.75;;;12.36;49.81
15678;BME280;7939;50.814;6.368;2023-04-27T02:14:37;100236.63;;;12.34;50.57
15678;BME280;7939;50.814;6.368;2023-04-27T02:17:03;100234.06;;;12.32;50.62
15678;BME280;7939;50.814;6.368;2023-04-27T02:19:30;100235.75;;;12.30;49.47
15678;BME280;7939;50.814;6.368;2023-04-27T02:21:56;100234.03;;;12.31;50.01
15678;BME280;7939;50.814;6.368;2023-04-27T02:24:23;100236.59;;;12.29;50.60
15678;BME280;7939;50.814;6.368;2023-04-27T02:26:50;100239.19;;;12.26;50.34
15678;BME280;7939;50.814;6.368;2023-04-27T02:29:16;100240.03;;;12.27;49.89
15678;BME280;7939;50.814;6.368;2023-04-27T02:31:44;100238.34;;;12.26;50.69
15678;BME280;7939;50.814;6.368;2023-04-27T02:34:11;100236.63;;;12.26;49.66
15678;BME280;7939;50.814;6.368;2023-04-27T02:36:37;100235.75;;;12.23;50.93
15678;BME280;7939;50.814;6.368;2023-04-27T02:39:04;100231.47;;;12.23;49.96
15678;BME280;7939;50.814;6.368;2023-04-27T02:41:31;100238.31;;;12.21;49.61
15678;BME280;7939;50.814;6.368;2023-04-27T02:43:57;100234.88;;;12.19;49.66
15678;BME280;7939;50.814;6.368;2023-04-27T02:46:24;100232.31;;;12.18;50.55
15678;BME280;7939;50.814;6.368;2023-04-27T02:48:52;100228.91;;;12.15;50.78
15678;BME280;7939;50.814;6.368;2023-04-27T02:51:19;100226.38;;;12.14;50.26
15678;BME280;7939;50.814;6.368;2023-04-27T02:53:45;100226.38;;;12.14;50.74
15678;BME280;7939;50.814;6.368;2023-04-27T02:56:12;100220.38;;;12.13;50.19
15678;BME280;7939;50.814;6.368;2023-04-27T02:58:38;100214.38;;;12.11;50.83
15678;BME280;7939;50.814;6.368;2023-04-27T03:01:05;100222.09;;;12.10;50.49
15678;BME280;7939;50.814;6.368;2023-04-27T03:03:32;100226.34;;;12.11;50.23
15678;BME280;7939;50.814;6.368;2023-04-27T03:06:00;100228.91;;;12.09;50.37
15678;BME280;7939;50.814;6.368;2023-04-27T03:08:27;100223.81;;;12.08;49.83
15678;BME280;7939;50.814;6.368;2023-04-27T03:10:54;100232.31;;;12.05;50.19
15678;BME280;7939;50.814;6.368;2023-04-27T03:13:21;100228.91;;;12.06;50.00
15678;BME280;7939;50.814;6.368;2023-04-27T03:15:47;100232.31;;;12.04;50.84
15678;BME280;7939;50.814;6.368;2023-04-27T03:18:14;100228.06;;;12.01;50.47
15678;BME280;7939;50.814;6.368;2023-04-27T03:20:40;100225.50;;;12.01;49.80
15678;BME280;7939;50.814;6.368;2023-04-27T03:23:09;100228.03;;;12.00;50.63
15678;BME280;7939;50.814;6.368;2023-04-27T03:25:36;100227.19;;;11.98;50.76
15678;BME280;7939;50.814;6.368;2023-04-27T03:28:03;100231.47;;;11.96;50.39
15678;BME280;7939;50.814;6.368;2023-04-27T03:30:30;100229.75;;;11.95;50.09
15678;BME280;7939;50.814;6.368;2023-04-27T03:32:57;100228.91;;;11.96;49.93
15678;BME280;7939;50.814;6.368;2023-04-27T03:35:23;100230.59;;;11.92;49.97
15678;BME280;7939;50.814;6.368;2023-04-27T03:37:50;100230.59;;;11.92;49.75
15678;BME280;7939;50.814;6.368;2023-04-27T03:40:18;100230.59;;;11.92;50.16
15678;BME280;7939;50.814;6.368;2023-04-27T03:42:44;100235.72;;;11.91;50.72
15678;BME280;7939;50.814;6.368;2023-04-27T03:45:11;100240.00;;;11.88;50.78
15678;BME280;7939;50.814;6.368;2023-04-27T03:47:38;100237.41;;;11.87;50.11
15678;BME280;7939;50.814;6.368;2023-04-27T03:50:05;100235.69;;;11.84;50.10
15678;BME280;7939;50.814;6.368;2023-04-27T03:52:32;100232.28;;;11.84;50.31
15678;BME280;7939;50.814;6.368;2023-04-27T03:54:59;100234.84;;;11.82;50.11
15678;BME280;7939;50.814;6.368;2023-04-27T03:57:26;100244.19;;;11.80;49.80
15678;BME280;7939;50.814;6.368;2023-04-27T03:59:53;100242.47;;;11.79;50.59
15678;BME280;7939;50.814;6.368;2023-04-27T04:02:20;100241.63;;;11.79;50.22
15678;BME280;7939;50.814;6.368;2023-04-27T04:04:47;100245.06;;;11.76;50.12
15678;BME280;7939;50.814;6.368;2023-04-27T04:07:14;100246.75;;;11.77;50.18
15678;BME280;7939;50.814;6.368;2023-04-27T04:09:41;100251.00;;;11.74;50.18
15678;BME280;7939;50.814;6.368;2023-04-27T04:12:07;100260.38;;;11.75;49.46
15678;BME280;7939;50.814;6.368;2023-04-27T04:14:36;100262.94;;;11.70;50.48
15678;BME280;7939;50.814;6.368;2023-04-27T04:17:02;100266.38;;;11.71;50.29
15678;BME280;7939;50.814;6.368;2023-04-27T04:19:29;100268.94;;;11.69;50.02
15678;BME280;7939;50.814;6.368;2023-04-27T04:21:55;100265.47;;;11.69;50.15
15678;BME280;7939;50.814;6.368;2023-04-27T04:24:22;100268.91;;;11.68;50.67
15678;BME280;7939;50.814;6.368;2023-04-27T04:26:48;100272.31;;;11.67;50.24
15678;BME280;7939;50.814;6.368;2023-04-27T04:29:15;100271.47;;;11.65;49.88
15678;BME280;7939;50.814;6.368;2023-04-27T04:31:43;100272.31;;;11.64;50.20
15678;BME280;7939;50.814;6.368;2023-04-27T04:34:10;100273.13;;;11.62;50.44
15678;BME280;7939;50.814;6.368;2023-04-27T04:36:37;100276.56;;;11.60;50.26
15678;BME280;7939;50.814;6.368;2023-04-27T04:39:03;100268.88;;;11.57;50.43
15678;BME280;7939;50.814;6.368;2023-04-27T04:41:31;100274.84;;;11.57;49.83
15678;BME280;7939;50.814;6.368;2023-04-27T04:43:57;100262.88;;;11.56;50.07
15678;BME280;7939;50.814;6.368;2023-04-27T04:46:25;100263.72;;;11.55;50.32
15678;BME280;7939;50.814;6.368;2023-04-27T04:48:53;100268.84;;;11.55;49.73
15678;BME280;7939;50.814;6.368;2023-04-27T04:51:19;100275.69;;;11.53;50.25
15678;BME280;7939;50.814;6.368;2023-04-27T04:53:46;100277.38;;;11.53;50.20
15678;BME280;7939;50.814;6.368;2023-04-27T04:56:13;100278.25;;;11.52;50.34
15678;BME280;7939;50.814;6.368;2023-04-27T04:58:41;100272.25;;;11.50;50.21
15678;BME280;7939;50.814;6.368;2023-04-27T05:01:07;100278.22;;;11.49;50.37
15678;BME280;7939;50.814;6.368;2023-04-27T05:03:34;100278.25;;;11.50;49.76
15678;BME280;7939;50.814;6.368;2023-04-27T05:06:02;100285.03;;;11.48;50.61
15678;BME280;7939;50.814;6.368;2023-04-27T05:08:29;100287.59;;;11.47;49.71
15678;BME280;7939;50.814;6.368;2023-04-27T05:10:55;100288.44;;;11.47;49.72
15678;BME280;7939;50.814;6.368;2023-04-27T05:13:22;100286.75;;;11.46;49.73
15678;BME280;7939;50.814;6.368;2023-04-27T05:15:49;100292.72;;;11.45;50.02
15678;BME280;7939;50.814;6.368;2023-04-27T05:18:16;100296.13;;;11.44;50.18
15678;BME280;7939;50.814;6.368;2023-04-27T05:20:43;100299.50;;;11.43;49.98
15678;BME280;7939;50.814;6.368;2023-04-27T05:23:11;100299.50;;;11.43;49.98
15678;BME280;7939;50.814;6.368;2023-04-27T05:25:38;100297.81;;;11.42;49.94
15678;BME280;7939;50.814;6.368;2023-04-27T05:28:06;100291.84;;;11.42;49.81
15678;BME280;7939;50.814;6.368;2023-04-27T05:30:33;100303.78;;;11.41;49.97
15678;BME280;7939;50.814;6.368;2023-04-27T05:33:00;100302.06;;;11.40;50.22
15678;BME280;7939;50.814;6.368;2023-04-27T05:35:26;100302.06;;;11.40;49.83
15678;BME280;7939;50.814;6.368;2023-04-27T05:37:53;100309.75;;;11.40;50.04
15678;BME280;7939;50.814;6.368;2023-04-27T05:40:22;100308.91;;;11.40;49.81
15678;BME280;7939;50.814;6.368;2023-04-27T05:42:48;100312.31;;;11.39;50.10
15678;BME280;7939;50.814;6.368;2023-04-27T05:45:15;100314.00;;;11.40;49.95
15678;BME280;7939;50.814;6.368;2023-04-27T05:47:42;100320.84;;;11.39;50.47
15678;BME280;7939;50.814;6.368;2023-04-27T05:50:09;100318.28;;;11.39;50.13
15678;BME280;7939;50.814;6.368;2023-04-27T05:52:36;100313.97;;;11.37;50.38
15678;BME280;7939;50.814;6.368;2023-04-27T05:55:04;100325.06;;;11.37;50.04
15678;BME280;7939;50.814;6.368;2023-04-27T05:57:33;100319.13;;;11.38;50.05
15678;BME280;7939;50.814;6.368;2023-04-27T05:59:59;100323.41;;;11.39;49.83
15678;BME280;7939;50.814;6.368;2023-04-27T06:02:26;100323.41;;;11.39;50.04
15678;BME280;7939;50.814;6.368;2023-04-27T06:04:53;100316.56;;;11.40;50.61
15678;BME280;7939;50.814;6.368;2023-04-27T06:07:20;100318.28;;;11.39;50.08
15678;BME280;7939;50.814;6.368;2023-04-27T06:09:46;100317.38;;;11.35;50.30
15678;BME280;7939;50.814;6.368;2023-04-27T06:12:13;100325.06;;;11.37;50.08
15678;BME280;7939;50.814;6.368;2023-04-27T06:14:41;100325.91;;;11.38;50.25
15678;BME280;7939;50.814;6.368;2023-04-27T06:17:07;100321.66;;;11.37;50.21
15678;BME280;7939;50.814;6.368;2023-04-27T06:19:34;100319.13;;;11.38;50.02
15678;BME280;7939;50.814;6.368;2023-04-27T06:22:00;100319.94;;;11.35;49.81
15678;BME280;7939;50.814;6.368;2023-04-27T06:24:28;100317.38;;;11.32;50.17
15678;BME280;7939;50.814;6.368;2023-04-27T06:26:55;100319.09;;;11.32;50.24
15678;BME280;7939;50.814;6.368;2023-04-27T06:29:21;100313.09;;;11.30;49.81
15678;BME280;7939;50.814;6.368;2023-04-27T06:31:49;100311.38;;;11.29;50.48
15678;BME280;7939;50.814;6.368;2023-04-27T06:34:16;100317.38;;;11.32;50.17
15678;BME280;7939;50.814;6.368;2023-04-27T06:36:42;100321.66;;;11.35;50.18
15678;BME280;7939;50.814;6.368;2023-04-27T06:39:09;100319.13;;;11.38;50.27
15678;BME280;7939;50.814;6.368;2023-04-27T06:41:35;100331.03;;;11.38;50.48
15678;BME280;7939;50.814;6.368;2023-04-27T06:44:02;100328.47;;;11.36;49.96
15678;BME280;7939;50.814;6.368;2023-04-27T06:46:29;100331.06;;;11.39;50.27
15678;BME280;7939;50.814;6.368;2023-04-27T06:48:57;100332.78;;;11.42;50.37
15678;BME280;7939;50.814;6.368;2023-04-27T06:51:24;100328.50;;;11.44;50.33
15678;BME280;7939;50.814;6.368;2023-04-27T06:53:51;100325.13;;;11.45;50.35
15678;BME280;7939;50.814;6.368;2023-04-27T06:56:17;100326.84;;;11.47;50.26
15678;BME280;7939;50.814;6.368;2023-04-27T06:58:44;100326.00;;;11.47;50.41
15678;BME280;7939;50.814;6.368;2023-04-27T07:01:10;100319.16;;;11.44;50.65
15678;BME280;7939;50.814;6.368;2023-04-27T07:03:37;100322.56;;;11.46;50.55
15678;BME280;7939;50.814;6.368;2023-04-27T07:06:05;100314.03;;;11.46;50.71
15678;BME280;7939;50.814;6.368;2023-04-27T07:08:32;100319.16;;;11.47;51.07
15678;BME280;7939;50.814;6.368;2023-04-27T07:11:00;100320.00;;;11.48;50.62
15678;BME280;7939;50.814;6.368;2023-04-27T07:13:26;100319.16;;;11.49;50.59
15678;BME280;7939;50.814;6.368;2023-04-27T07:15:54;100326.88;;;11.52;51.02
15678;BME280;7939;50.814;6.368;2023-04-27T07:18:22;100320.88;;;11.50;50.80
15678;BME280;7939;50.814;6.368;2023-04-27T07:20:48;100320.88;;;11.47;50.33
15678;BME280;7939;50.814;6.368;2023-04-27T07:23:16;100317.47;;;11.46;50.54
15678;BME280;7939;50.814;6.368;2023-04-27T07:25:43;100312.34;;;11.48;50.99
15678;BME280;7939;50.814;6.368;2023-04-27T07:28:10;100318.31;;;11.50;51.06
15678;BME280;7939;50.814;6.368;2023-04-27T07:30:37;100317.47;;;11.49;51.00
15678;BME280;7939;50.814;6.368;2023-04-27T07:33:04;100316.63;;;11.50;51.21
15678;BME280;7939;50.814;6.368;2023-04-27T07:35:31;100316.56;;;11.43;50.78
15678;BME280;7939;50.814;6.368;2023-04-27T07:37:58;100313.19;;;11.48;50.98
15678;BME280;7939;50.814;6.368;2023-04-27T07:40:27;100312.38;;;11.52;51.34
15678;BME280;7939;50.814;6.368;2023-04-27T07:42:54;100314.03;;;11.49;51.06
15678;BME280;7939;50.814;6.368;2023-04-27T07:45:20;100311.50;;;11.53;50.58
15678;BME280;7939;50.814;6.368;2023-04-27T07:47:47;100308.94;;;11.46;50.15
15678;BME280;7939;50.814;6.368;2023-04-27T07:50:13;100304.69;;;11.52;49.91
15678;BME280;7939;50.814;6.368;2023-04-27T07:52:42;100306.44;;;11.58;50.70
15678;BME280;7939;50.814;6.368;2023-04-27T07:55:09;100305.56;;;11.62;51.13
15678;BME280;7939;50.814;6.368;2023-04-27T07:57:36;100307.31;;;11.66;50.97
15678;BME280;7939;50.814;6.368;2023-04-27T08:00:04;100303.88;;;11.69;50.14
15678;BME280;7939;50.814;6.368;2023-04-27T08:02:33;100300.50;;;11.71;50.54
15678;BME280;7939;50.814;6.368;2023-04-27T08:04:59;100307.31;;;11.75;50.08
15678;BME280;7939;50.814;6.368;2023-04-27T08:07:26;100304.78;;;11.80;50.84
15678;BME280;7939;50.814;6.368;2023-04-27T08:09:53;100304.84;;;11.87;50.45
15678;BME280;7939;50.814;6.368;2023-04-27T08:12:20;100292.91;;;11.88;50.55
15678;BME280;7939;50.814;6.368;2023-04-27T08:14:47;100304.88;;;11.95;50.31
15678;BME280;7939;50.814;6.368;2023-04-27T08:17:14;100299.75;;;12.00;49.49
15678;BME280;7939;50.814;6.368;2023-04-27T08:19:42;100295.50;;;11.99;49.54
15678;BME280;7939;50.814;6.368;2023-04-27T08:22:09;100289.50;;;11.98;49.57
15678;BME280;7939;50.814;6.368;2023-04-27T08:24:35;100286.13;;;12.01;49.88
15678;BME280;7939;50.814;6.368;2023-04-27T08:27:02;100281.84;;;12.09;49.12
15678;BME280;7939;50.814;6.368;2023-04-27T08:29:29;100281.84;;;12.09;49.16
15678;BME280;7939;50.814;6.368;2023-04-27T08:31:58;100278.44;;;12.16;49.49
15678;BME280;7939;50.814;6.368;2023-04-27T08:34:26;100286.13;;;12.18;49.19
15678;BME280;7939;50.814;6.368;2023-04-27T08:36:52;100288.69;;;12.24;49.20
15678;BME280;7939;50.814;6.368;2023-04-27T08:39:19;100287.00;;;12.24;48.46
15678;BME280;7939;50.814;6.368;2023-04-27T08:41:46;100282.72;;;12.29;48.68
15678;BME280;7939;50.814;6.368;2023-04-27T08:44:13;100287.00;;;12.32;49.09
15678;BME280;7939;50.814;6.368;2023-04-27T08:46:39;100273.34;;;12.36;48.91
15678;BME280;7939;50.814;6.368;2023-04-27T08:49:07;100277.63;;;12.41;48.06
15678;BME280;7939;50.814;6.368;2023-04-27T08:51:34;100287.03;;;12.46;48.02
15678;BME280;7939;50.814;6.368;2023-04-27T08:54:01;100283.63;;;12.51;48.31
15678;BME280;7939;50.814;6.368;2023-04-27T08:56:29;100288.75;;;12.53;49.01
15678;BME280;7939;50.814;6.368;2023-04-27T08:58:56;100283.59;;;12.56;48.43
15678;BME280;7939;50.814;6.368;2023-04-27T09:01:24;100276.75;;;12.62;48.62
15678;BME280;7939;50.814;6.368;2023-04-27T09:03:55;100272.50;;;12.64;47.82
15678;BME280;7939;50.814;6.368;2023-04-27T09:06:29;100271.63;;;12.68;47.08
15678;BME280;7939;50.814;6.368;2023-04-27T09:08:56;100269.09;;;12.70;47.39
15678;BME280;7939;50.814;6.368;2023-04-27T09:11:31;100262.22;;;12.75;47.29
15678;BME280;7939;50.814;6.368;2023-04-27T09:13:59;100272.47;;;12.74;46.31
15678;BME280;7939;50.814;6.368;2023-04-27T09:16:27;100276.75;;;12.84;47.11
15678;BME280;7939;50.814;6.368;2023-04-27T09:18:54;100263.06;;;12.85;46.11
15678;BME280;7939;50.814;6.368;2023-04-27T09:21:22;100273.31;;;12.88;46.52
15678;BME280;7939;50.814;6.368;2023-04-27T09:23:51;100272.44;;;12.93;46.57
15678;BME280;7939;50.814;6.368;2023-04-27T09:26:19;100267.34;;;12.96;47.01
15678;BME280;7939;50.814;6.368;2023-04-27T09:28:48;100269.03;;;13.02;46.31
15678;BME280;7939;50.814;6.368;2023-04-27T09:31:15;100269.00;;;13.01;45.91
15678;BME280;7939;50.814;6.368;2023-04-27T09:33:43;100261.31;;;13.08;46.01
15678;BME280;7939;50.814;6.368;2023-04-27T09:36:10;100265.59;;;13.08;46.64
15678;BME280;7939;50.814;6.368;2023-04-27T09:38:37;100268.13;;;13.12;47.22
15678;BME280;7939;50.814;6.368;2023-04-27T09:41:06;100263.91;;;13.20;46.10
15678;BME280;7939;50.814;6.368;2023-04-27T09:43:33;100258.72;;;13.17;45.57
15678;BME280;7939;50.814;6.368;2023-04-27T09:46:03;100257.91;;;13.21;46.12
15678;BME280;7939;50.814;6.368;2023-04-27T09:48:29;100259.59;;;13.22;46.59
15678;BME280;7939;50.814;6.368;2023-04-27T09:50:56;100251.00;;;13.31;46.09
15678;BME280;7939;50.814;6.368;2023-04-27T09:53:27;100251.84;;;13.36;46.58
15678;BME280;7939;50.814;6.368;2023-04-27T09:56:14;100265.53;;;13.41;45.60
15678;BME280;7939;50.814;6.368;2023-04-27T09:59:13;100255.28;;;13.40;46.20
15678;BME280;7939;50.814;6.368;2023-04-27T10:01:46;100252.69;;;13.40;46.57
15678;BME280;7939;50.814;6.368;2023-04-27T10:04:33;100245.81;;;13.43;45.22
15678;BME280;7939;50.814;6.368;2023-04-27T10:07:04;100245.81;;;13.45;45.91
15678;BME280;7939;50.814;6.368;2023-04-27T10:09:36;100244.09;;;13.48;45.36
15678;BME280;7939;50.814;6.368;2023-04-27T10:12:16;100239.81;;;13.52;45.23
15678;BME280;7939;50.814;6.368;2023-04-27T10:14:55;100233.81;;;13.50;45.81
15678;BME280;7939;50.814;6.368;2023-04-27T10:17:29;100239.78;;;13.57;46.06
15678;BME280;7939;50.814;6.368;2023-04-27T10:19:57;100230.09;;;14.01;45.49
15678;BME280;7939;50.814;6.368;2023-04-27T10:22:24;100229.88;;;14.32;45.06
15678;BME280;7939;50.814;6.368;2023-04-27T10:25:12;100221.94;;;14.61;45.28
15678;BME280;7939;50.814;6.368;2023-04-27T10:27:39;100226.09;;;14.77;44.70
15678;BME280;7939;50.814;6.368;2023-04-27T10:30:10;100221.63;;;14.92;43.70
15678;BME280;7939;50.814;6.368;2023-04-27T10:32:37;100227.47;;;15.06;44.62
15678;BME280;7939;50.814;6.368;2023-04-27T10:35:05;100217.97;;;15.11;42.95
15678;BME280;7939;50.814;6.368;2023-04-27T10:37:38;100217.06;;;15.17;43.81
15678;BME280;7939;50.814;6.368;2023-04-27T10:40:07;100210.06;;;15.26;43.08
15678;BME280;7939;50.814;6.368;2023-04-27T10:42:35;100221.13;;;15.36;43.47
15678;BME280;7939;50.814;6.368;2023-04-27T10:45:02;100225.34;;;15.42;43.23
15678;BME280;7939;50.814;6.368;2023-04-27T10:47:39;100229.50;;;15.52;42.59
15678;BME280;7939;50.814;6.368;2023-04-27T10:50:08;100218.25;;;15.59;43.32
15678;BME280;7939;50.814;6.368;2023-04-27T10:52:39;100209.53;;;15.69;43.40
15678;BME280;7939;50.814;6.368;2023-04-27T10:55:14;100215.47;;;15.76;43.61
15678;BME280;7939;50.814;6.368;2023-04-27T10:57:47;100218.94;;;15.73;42.92
15678;BME280;7939;50.814;6.368;2023-04-27T11:00:15;100212.03;;;15.75;43.08
15678;BME280;7939;50.814;6.368;2023-04-27T11:02:44;100212.84;;;15.77;42.75
15678;BME280;7939;50.814;6.368;2023-04-27T11:05:17;100204.19;;;15.83;42.66
15678;BME280;7939;50.814;6.368;2023-04-27T11:07:44;100208.56;;;15.76;42.73
15678;BME280;7939;50.814;6.368;2023-04-27T11:10:14;100202.56;;;15.76;42.39
15678;BME280;7939;50.814;6.368;2023-04-27T11:12:41;100200.00;;;15.76;42.38
15678;BME280;7939;50.814;6.368;2023-04-27T11:15:09;100194.72;;;15.85;42.26
15678;BME280;7939;50.814;6.368;2023-04-27T11:17:35;100206.72;;;15.87;42.37
15678;BME280;7939;50.814;6.368;2023-04-27T11:20:04;100193.81;;;15.87;41.90
15678;BME280;7939;50.814;6.368;2023-04-27T11:22:33;100199.81;;;15.88;42.05
15678;BME280;7939;50.814;6.368;2023-04-27T11:25:00;100192.13;;;15.86;41.82
15678;BME280;7939;50.814;6.368;2023-04-27T11:27:35;100173.25;;;15.84;41.21
15678;BME280;7939;50.814;6.368;2023-04-27T11:30:02;100179.22;;;15.86;41.75
15678;BME280;7939;50.814;6.368;2023-04-27T11:32:29;100168.09;;;15.83;41.24
15678;BME280;7939;50.814;6.368;2023-04-27T11:34:56;100165.53;;;15.84;41.46
15678;BME280;7939;50.814;6.368;2023-04-27T11:37:25;100171.53;;;15.83;41.24
15678;BME280;7939;50.814;6.368;2023-04-27T11:39:53;100165.56;;;15.81;41.50
15678;BME280;7939;50.814;6.368;2023-04-27T11:42:23;100160.41;;;15.81;41.56
15678;BME280;7939;50.814;6.368;2023-04-27T11:44:54;100169.81;;;15.85;40.99
15678;BME280;7939;50.814;6.368;2023-04-27T11:47:21;100163.88;;;15.80;41.30
15678;BME280;7939;50.814;6.368;2023-04-27T11:49:48;100158.66;;;15.83;41.28
15678;BME280;7939;50.814;6.368;2023-04-27T11:52:14;100155.22;;;15.84;41.34
15678;BME280;7939;50.814;6.368;2023-04-27T11:54:51;100155.16;;;15.87;40.80
15678;BME280;7939;50.814;6.368;2023-04-27T11:57:23;100154.31;;;15.87;41.27
15678;BME280;7939;50.814;6.368;2023-04-27T11:59:51;100151.63;;;15.93;41.42
15678;BME280;7939;50.814;6.368;2023-04-27T12:02:18;100143.91;;;15.93;41.44
15678;BME280;7939;50.814;6.368;2023-04-27T12:04:46;100142.25;;;15.90;41.43
15678;BME280;7939;50.814;6.368;2023-04-27T12:07:12;100148.22;;;15.93;41.34
15678;BME280;7939;50.814;6.368;2023-04-27T12:09:39;100141.22;;;15.99;41.47
15678;BME280;7939;50.814;6.368;2023-04-27T12:12:07;100145.53;;;15.99;41.14
15678;BME280;7939;50.814;6.368;2023-04-27T12:14:34;100146.38;;;15.99;41.36
15678;BME280;7939;50.814;6.368;2023-04-27T12:17:01;100151.56;;;15.98;39.94
15678;BME280;7939;50.814;6.368;2023-04-27T12:19:27;100150.72;;;15.97;41.14
15678;BME280;7939;50.814;6.368;2023-04-27T12:21:56;100153.38;;;15.93;40.65
15678;BME280;7939;50.814;6.368;2023-04-27T12:24:23;100143.00;;;15.97;40.64
15678;BME280;7939;50.814;6.368;2023-04-27T12:26:49;100148.91;;;16.02;41.08
15678;BME280;7939;50.814;6.368;2023-04-27T12:29:17;100132.63;;;16.00;41.07
15678;BME280;7939;50.814;6.368;2023-04-27T12:31:44;100136.22;;;15.91;40.55
15678;BME280;7939;50.814;6.368;2023-04-27T12:34:11;100132.78;;;15.91;40.69
15678;BME280;7939;50.814;6.368;2023-04-27T12:36:39;100126.75;;;15.92;40.95
15678;BME280;7939;50.814;6.368;2023-04-27T12:39:13;100132.75;;;15.93;40.59
15678;BME280;7939;50.814;6.368;2023-04-27T12:41:40;100128.41;;;15.95;39.92
15678;BME280;7939;50.814;6.368;2023-04-27T12:44:07;100124.16;;;15.92;39.52
15678;BME280;7939;50.814;6.368;2023-04-27T12:46:34;100122.47;;;15.89;40.42
15678;BME280;7939;50.814;6.368;2023-04-27T12:49:01;100122.47;;;15.89;40.45
15678;BME280;7939;50.814;6.368;2023-04-27T12:51:28;100124.16;;;15.92;41.17
15678;BME280;7939;50.814;6.368;2023-04-27T12:53:54;100128.47;;;15.90;41.02
15678;BME280;7939;50.814;6.368;2023-04-27T12:56:21;100124.09;;;15.97;41.34
15678;BME280;7939;50.814;6.368;2023-04-27T12:58:48;100128.31;;;16.01;41.08
15678;BME280;7939;50.814;6.368;2023-04-27T13:01:14;100124.03;;;16.00;41.01
15678;BME280;7939;50.814;6.368;2023-04-27T13:03:43;100123.22;;;15.98;41.77